Time;durP1;ratioP1;P1;durP2;ratioP2;P2;SDS_P1;SDS_P2;PMS_P1;PMS_P2;Temp;Humidity;BMP_temperature;BMP_pressure;BME280_temperature;BME280_humidity;BME280_pressure;Samples;Min_cycle;Max_cycle;Signal;HPM_P1;HPM_P2
2023/12/06 00:01:53;;;;;;;7.45;2.95;;;;;;;;;;5131442;27;20106;-73
2023/12/06 00:04:20;;;;;;;7.63;2.85;;;;;;;;;;5130818;27;20514;-72
2023/12/06 00:06:47;;;;;;;8.88;2.97;;;;;;;;;;5131410;27;20051;-72
2023/12/06 00:09:13;;;;;;;10.07;2.90;;;;;;;;;;5131037;27;20142;-72
2023/12/06 00:11:40;;;;;;;5.68;2.65;;;;;;;;;;5131049;27;20499;-72
2023/12/06 00:14:07;;;;;;;6.28;2.70;;;;;;;;;;5131095;27;20062;-72
2023/12/06 00:16:33;;;;;;;7.43;2.92;;;;;;;;;;5131114;27;20044;-72
2023/12/06 00:19:00;;;;;;;7.07;2.40;;;;;;;;;;5130881;27;20559;-72
2023/12/06 00:21:27;;;;;;;6.22;2.60;;;;;;;;;;5131266;27;20075;-72
2023/12/06 00:23:54;;;;;;;6.22;2.58;;;;;;;;;;5130544;27;20062;-72
2023/12/06 00:26:21;;;;;;;6.38;2.47;;;;;;;;;;5130971;27;20047;-72
2023/12/06 00:28:50;;;;;;;7.45;2.72;;;;;;;;;;5130653;27;20129;-72
2023/12/06 00:31:17;;;;;;;5.82;2.50;;;;;;;;;;5130624;27;20416;-72
2023/12/06 00:33:44;;;;;;;6.13;2.28;;;;;;;;;;5130662;27;20512;-72
2023/12/06 00:36:11;;;;;;;4.20;2.33;;;;;;;;;;5130503;27;20047;-71
2023/12/06 00:38:38;;;;;;;7.45;2.80;;;;;;;;;;5130125;27;20088;-72
2023/12/06 00:41:04;;;;;;;4.57;2.50;;;;;;;;;;5130929;27;20055;-71
2023/12/06 00:43:31;;;;;;;6.13;2.58;;;;;;;;;;5130693;27;20501;-72
2023/12/06 00:45:58;;;;;;;6.13;2.65;;;;;;;;;;5130057;27;20039;-71
2023/12/06 00:48:27;;;;;;;4.90;2.47;;;;;;;;;;5130443;27;20051;-72
2023/12/06 00:50:54;;;;;;;5.57;2.42;;;;;;;;;;5130196;27;20491;-71
2023/12/06 00:53:20;;;;;;;3.72;2.03;;;;;;;;;;5129903;27;20051;-73
2023/12/06 00:55:47;;;;;;;6.57;2.53;;;;;;;;;;5129516;27;20041;-71
2023/12/06 00:58:14;;;;;;;4.35;2.10;;;;;;;;;;5130338;27;20054;-72
2023/12/06 01:00:40;;;;;;;5.70;2.22;;;;;;;;;;5129783;27;20100;-71
2023/12/06 01:03:07;;;;;;;5.45;2.38;;;;;;;;;;5130636;27;20074;-72
2023/12/06 01:05:34;;;;;;;5.50;2.17;;;;;;;;;;5130191;27;20039;-71
2023/12/06 01:08:01;;;;;;;4.63;2.20;;;;;;;;;;5130091;27;20111;-72
2023/12/06 01:10:27;;;;;;;5.43;2.30;;;;;;;;;;5129619;27;20133;-72
2023/12/06 01:12:54;;;;;;;7.70;2.47;;;;;;;;;;5129884;27;20051;-71
2023/12/06 01:15:21;;;;;;;4.28;1.98;;;;;;;;;;5129639;27;20051;-72
2023/12/06 01:17:48;;;;;;;3.75;2.00;;;;;;;;;;5129957;27;20054;-72
2023/12/06 01:20:14;;;;;;;4.18;2.00;;;;;;;;;;5130021;27;20126;-72
2023/12/06 01:22:41;;;;;;;6.22;2.55;;;;;;;;;;5129591;27;20560;-72
2023/12/06 01:25:08;;;;;;;5.10;2.20;;;;;;;;;;5129375;27;20046;-72
2023/12/06 01:27:35;;;;;;;4.50;2.10;;;;;;;;;;5129876;27;20053;-71
2023/12/06 01:30:04;;;;;;;6.07;1.80;;;;;;;;;;5129495;27;20487;-72
2023/12/06 01:32:38;;;;;;;3.55;1.83;;;;;;;;;;5129900;27;20050;-72
2023/12/06 01:35:07;;;;;;;3.42;1.73;;;;;;;;;;5129446;27;20666;-73
2023/12/06 01:37:33;;;;;;;4.68;1.83;;;;;;;;;;5129992;27;20039;-73
2023/12/06 01:40:00;;;;;;;3.67;1.63;;;;;;;;;;5129271;27;20410;-73
2023/12/06 01:42:27;;;;;;;3.83;1.80;;;;;;;;;;5129713;27;20082;-73
2023/12/06 01:44:56;;;;;;;4.57;1.77;;;;;;;;;;5129237;27;20047;-72
2023/12/06 01:47:25;;;;;;;3.38;1.50;;;;;;;;;;5129469;27;20403;-73
2023/12/06 01:49:56;;;;;;;4.43;1.95;;;;;;;;;;5129667;27;20074;-73
2023/12/06 01:52:26;;;;;;;5.07;1.90;;;;;;;;;;5129616;27;20503;-73
2023/12/06 01:54:57;;;;;;;5.63;1.90;;;;;;;;;;5129115;27;20047;-73
2023/12/06 01:57:31;;;;;;;3.67;2.03;;;;;;;;;;5129927;27;20087;-73
2023/12/06 02:00:03;;;;;;;4.78;1.98;;;;;;;;;;5129040;27;20625;-73
2023/12/06 02:02:30;;;;;;;4.38;1.92;;;;;;;;;;5129693;27;20115;-73
2023/12/06 02:04:57;;;;;;;2.42;1.60;;;;;;;;;;5129059;27;20047;-73
2023/12/06 02:07:27;;;;;;;3.80;1.85;;;;;;;;;;5129605;28;20070;-72
2023/12/06 02:09:55;;;;;;;3.38;1.52;;;;;;;;;;5128863;28;20047;-73
2023/12/06 02:12:26;;;;;;;3.85;1.80;;;;;;;;;;5131958;27;20054;-73
2023/12/06 02:14:57;;;;;;;3.28;1.83;;;;;;;;;;5133604;27;20047;-73
2023/12/06 02:17:25;;;;;;;7.15;1.88;;;;;;;;;;5133441;27;20054;-71
2023/12/06 02:19:53;;;;;;;5.25;2.15;;;;;;;;;;5115029;27;20068;-73
2023/12/06 02:22:21;;;;;;;3.97;2.05;;;;;;;;;;5132828;27;20047;-73
2023/12/06 02:24:51;;;;;;;6.35;2.03;;;;;;;;;;5133267;27;20079;-73
2023/12/06 02:27:17;;;;;;;6.15;2.63;;;;;;;;;;5132896;27;20578;-73
2023/12/06 02:29:44;;;;;;;4.18;2.05;;;;;;;;;;5133138;27;20125;-72
2023/12/06 02:32:11;;;;;;;3.67;2.00;;;;;;;;;;5115145;27;20051;-73
2023/12/06 02:34:38;;;;;;;2.63;1.58;;;;;;;;;;5133469;27;20055;-72
2023/12/06 02:37:07;;;;;;;3.50;1.63;;;;;;;;;;5132621;27;20411;-73
2023/12/06 02:39:36;;;;;;;5.15;2.03;;;;;;;;;;5132547;27;20495;-72
2023/12/06 02:42:03;;;;;;;4.63;2.00;;;;;;;;;;5132953;27;20047;-72
2023/12/06 02:44:30;;;;;;;3.33;1.67;;;;;;;;;;5133130;27;20082;-72
2023/12/06 02:47:01;;;;;;;2.75;1.42;;;;;;;;;;5132666;27;20068;-72
2023/12/06 02:49:30;;;;;;;5.07;2.10;;;;;;;;;;5115055;27;20047;-72
2023/12/06 02:52:05;;;;;;;3.85;2.17;;;;;;;;;;5132808;27;20479;-71
2023/12/06 02:54:34;;;;;;;3.70;1.83;;;;;;;;;;5132434;27;20047;-72
2023/12/06 02:57:01;;;;;;;3.47;1.70;;;;;;;;;;5132428;27;20054;-72
2023/12/06 02:59:31;;;;;;;3.58;1.92;;;;;;;;;;5132516;27;20563;-73
2023/12/06 03:02:00;;;;;;;3.08;1.63;;;;;;;;;;5132537;27;20441;-73
2023/12/06 03:04:27;;;;;;;3.55;2.00;;;;;;;;;;5132705;27;20078;-72
2023/12/06 03:06:53;;;;;;;4.63;2.13;;;;;;;;;;5132205;27;20053;-72
2023/12/06 03:09:20;;;;;;;3.80;1.98;;;;;;;;;;5132196;27;20092;-72
2023/12/06 03:11:47;;;;;;;3.15;1.85;;;;;;;;;;5132071;27;20058;-73
2023/12/06 03:14:14;;;;;;;3.20;1.70;;;;;;;;;;5132317;27;20498;-72
2023/12/06 03:16:40;;;;;;;4.80;2.00;;;;;;;;;;5114057;27;20058;-72
2023/12/06 03:19:07;;;;;;;3.33;1.90;;;;;;;;;;5132702;27;20039;-72
2023/12/06 03:21:37;;;;;;;3.92;2.10;;;;;;;;;;5132228;27;20051;-72
2023/12/06 03:24:06;;;;;;;3.17;1.75;;;;;;;;;;5131887;27;20123;-73
2023/12/06 03:26:33;;;;;;;3.75;1.70;;;;;;;;;;5131929;27;20491;-72
2023/12/06 03:29:02;;;;;;;6.07;1.77;;;;;;;;;;5132303;27;20047;-71
2023/12/06 03:31:29;;;;;;;3.08;1.90;;;;;;;;;;5131573;27;20053;-72
2023/12/06 03:33:55;;;;;;;4.40;1.70;;;;;;;;;;5132044;27;20130;-73
2023/12/06 03:36:22;;;;;;;3.05;1.50;;;;;;;;;;5131614;27;20043;-72
2023/12/06 03:38:50;;;;;;;5.18;2.10;;;;;;;;;;5131551;27;20043;-72
2023/12/06 03:41:19;;;;;;;4.72;1.88;;;;;;;;;;5131858;27;20481;-73
2023/12/06 03:43:46;;;;;;;3.28;1.83;;;;;;;;;;5131945;27;20051;-72
2023/12/06 03:46:28;;;;;;;3.60;1.67;;;;;;;;;;5131652;27;20047;-72
2023/12/06 03:48:55;;;;;;;3.53;2.00;;;;;;;;;;5131478;27;20134;-71
2023/12/06 03:51:22;;;;;;;3.70;1.80;;;;;;;;;;5131422;27;20556;-72
2023/12/06 03:53:49;;;;;;;4.72;1.88;;;;;;;;;;5131619;27;20190;-73
2023/12/06 03:56:16;;;;;;;5.03;1.90;;;;;;;;;;5113365;27;20040;-72
2023/12/06 03:58:43;;;;;;;5.07;2.05;;;;;;;;;;5131696;27;20083;-72
2023/12/06 04:01:09;;;;;;;4.00;1.95;;;;;;;;;;5131525;27;20070;-72
2023/12/06 04:03:42;;;;;;;5.63;2.60;;;;;;;;;;5131209;27;20519;-72
2023/12/06 04:06:13;;;;;;;3.78;2.05;;;;;;;;;;5131039;27;20403;-72
2023/12/06 04:08:40;;;;;;;4.47;2.78;;;;;;;;;;5130966;27;20096;-73
2023/12/06 04:11:10;;;;;;;4.10;2.28;;;;;;;;;;5131482;27;20077;-72
2023/12/06 04:13:39;;;;;;;5.07;2.53;;;;;;;;;;5131429;27;20051;-72
2023/12/06 04:16:09;;;;;;;5.80;2.83;;;;;;;;;;5113202;27;20292;-71
2023/12/06 04:18:36;;;;;;;4.53;2.60;;;;;;;;;;5131034;27;20079;-72
2023/12/06 04:21:05;;;;;;;5.50;2.75;;;;;;;;;;5131209;27;20096;-72
2023/12/06 04:23:32;;;;;;;5.40;3.08;;;;;;;;;;5129876;27;20118;-72
2023/12/06 04:25:59;;;;;;;6.70;3.03;;;;;;;;;;5130932;27;20043;-73
2023/12/06 04:28:25;;;;;;;4.10;2.50;;;;;;;;;;5130779;27;20732;-71
2023/12/06 04:30:52;;;;;;;5.40;2.50;;;;;;;;;;5130826;27;20039;-72
2023/12/06 04:33:19;;;;;;;5.60;3.03;;;;;;;;;;5121786;27;20050;-71
2023/12/06 04:35:45;;;;;;;6.50;2.60;;;;;;;;;;5109182;28;20587;-72
2023/12/06 04:38:12;;;;;;;5.68;2.42;;;;;;;;;;5109576;28;20044;-72
2023/12/06 04:40:42;;;;;;;3.80;2.10;;;;;;;;;;5109084;28;20043;-72
2023/12/06 04:43:11;;;;;;;5.80;2.55;;;;;;;;;;5108974;28;20055;-72
2023/12/06 04:45:38;;;;;;;4.88;2.10;;;;;;;;;;5109733;28;20036;-72
2023/12/06 04:48:05;;;;;;;4.40;2.15;;;;;;;;;;5109337;28;20071;-72
2023/12/06 04:50:32;;;;;;;6.78;3.10;;;;;;;;;;5109815;28;20052;-73
2023/12/06 04:52:59;;;;;;;5.45;2.67;;;;;;;;;;5109578;28;20050;-73
2023/12/06 04:55:25;;;;;;;7.03;2.45;;;;;;;;;;5114821;27;20052;-71
2023/12/06 04:57:52;;;;;;;4.57;2.45;;;;;;;;;;5119162;27;20376;-72
2023/12/06 05:00:21;;;;;;;4.03;2.20;;;;;;;;;;5100627;27;20047;-72
2023/12/06 05:02:49;;;;;;;4.55;2.33;;;;;;;;;;5124434;27;20516;-72
2023/12/06 05:05:16;;;;;;;5.63;2.92;;;;;;;;;;5130379;27;20051;-72
2023/12/06 05:07:43;;;;;;;5.70;2.60;;;;;;;;;;5129861;27;20490;-72
2023/12/06 05:10:10;;;;;;;5.55;2.30;;;;;;;;;;5129866;27;20566;-72
2023/12/06 05:12:36;;;;;;;6.30;2.45;;;;;;;;;;5129739;27;20047;-73
2023/12/06 05:15:04;;;;;;;5.68;2.30;;;;;;;;;;5130050;27;20039;-73
2023/12/06 05:17:31;;;;;;;2.88;1.73;;;;;;;;;;5129623;27;20061;-73
2023/12/06 05:19:57;;;;;;;3.90;2.00;;;;;;;;;;5130121;27;20043;-72
2023/12/06 05:22:24;;;;;;;4.43;1.92;;;;;;;;;;5129643;27;20047;-72
2023/12/06 05:24:51;;;;;;;3.47;1.67;;;;;;;;;;5129238;27;20487;-72
2023/12/06 05:27:18;;;;;;;3.25;1.55;;;;;;;;;;5129862;27;20051;-72
2023/12/06 05:29:44;;;;;;;3.92;1.60;;;;;;;;;;5129659;27;20460;-72
2023/12/06 05:32:11;;;;;;;2.88;1.65;;;;;;;;;;5129474;27;20051;-72
2023/12/06 05:34:41;;;;;;;4.43;2.13;;;;;;;;;;5129928;27;20047;-72
2023/12/06 05:37:10;;;;;;;3.60;2.03;;;;;;;;;;5129287;27;20040;-72
2023/12/06 05:39:39;;;;;;;4.25;2.50;;;;;;;;;;5129366;27;20047;-73
2023/12/06 05:42:06;;;;;;;7.18;2.97;;;;;;;;;;5130087;27;20126;-72
2023/12/06 05:44:33;;;;;;;4.40;2.15;;;;;;;;;;5129263;27;20047;-72
2023/12/06 05:47:00;;;;;;;5.30;2.50;;;;;;;;;;5129347;27;20176;-72
2023/12/06 05:49:27;;;;;;;4.00;2.17;;;;;;;;;;5129281;27;20047;-73
2023/12/06 05:51:53;;;;;;;3.25;2.10;;;;;;;;;;5129568;27;20116;-73
2023/12/06 05:54:20;;;;;;;3.70;1.92;;;;;;;;;;5128876;27;20122;-71
2023/12/06 05:56:47;;;;;;;4.30;1.80;;;;;;;;;;5129441;27;20047;-72
2023/12/06 05:59:16;;;;;;;2.83;1.65;;;;;;;;;;5129619;27;20062;-72
2023/12/06 06:01:46;;;;;;;3.30;1.90;;;;;;;;;;5129344;27;20414;-71
2023/12/06 06:04:13;;;;;;;3.17;1.75;;;;;;;;;;5129379;27;20055;-72
2023/12/06 06:06:40;;;;;;;3.47;1.77;;;;;;;;;;5129389;28;20104;-72
2023/12/06 06:09:07;;;;;;;3.83;1.90;;;;;;;;;;5128832;28;20058;-72
2023/12/06 06:11:33;;;;;;;4.10;2.00;;;;;;;;;;5129324;28;20118;-71
2023/12/06 06:14:00;;;;;;;4.57;2.38;;;;;;;;;;5128992;28;20054;-72
2023/12/06 06:16:27;;;;;;;3.75;1.73;;;;;;;;;;5129152;28;20483;-72
2023/12/06 06:18:53;;;;;;;4.35;2.30;;;;;;;;;;5129041;28;20039;-72
2023/12/06 06:21:20;;;;;;;4.55;2.33;;;;;;;;;;5129428;27;20092;-72
2023/12/06 06:23:47;;;;;;;3.55;1.95;;;;;;;;;;5128380;28;20054;-74
2023/12/06 06:26:14;;;;;;;3.97;1.88;;;;;;;;;;5129180;28;20043;-73
2023/12/06 06:28:43;;;;;;;3.65;2.00;;;;;;;;;;5128950;28;20043;-74
2023/12/06 06:31:09;;;;;;;3.88;1.88;;;;;;;;;;5129107;28;20051;-74
2023/12/06 06:33:36;;;;;;;4.80;2.35;;;;;;;;;;5128726;27;20035;-72
2023/12/06 06:36:07;;;;;;;3.70;2.03;;;;;;;;;;5129307;28;20078;-74
2023/12/06 06:38:36;;;;;;;4.07;2.15;;;;;;;;;;5110044;28;20047;-74
2023/12/06 06:41:03;;;;;;;3.00;1.80;;;;;;;;;;5129255;28;20066;-74
2023/12/06 06:43:30;;;;;;;3.55;1.85;;;;;;;;;;5129014;28;20050;-74
2023/12/06 06:45:56;;;;;;;4.63;2.13;;;;;;;;;;5129168;28;20126;-74
2023/12/06 06:48:23;;;;;;;4.75;1.92;;;;;;;;;;5128426;28;20047;-73
2023/12/06 06:50:51;;;;;;;4.32;1.95;;;;;;;;;;5128847;27;20075;-74
2023/12/06 06:53:18;;;;;;;2.40;1.27;;;;;;;;;;5128869;28;20043;-74
2023/12/06 06:55:45;;;;;;;4.60;2.20;;;;;;;;;;5128551;28;20503;-74
2023/12/06 06:58:11;;;;;;;3.08;1.67;;;;;;;;;;5130898;27;20047;-74
2023/12/06 07:00:38;;;;;;;3.55;1.65;;;;;;;;;;5132799;27;20047;-73
2023/12/06 07:03:05;;;;;;;3.70;1.80;;;;;;;;;;5132364;27;20136;-74
2023/12/06 07:05:32;;;;;;;4.40;1.98;;;;;;;;;;5132713;27;20084;-74
2023/12/06 07:07:59;;;;;;;3.83;1.92;;;;;;;;;;5132592;27;20456;-73
2023/12/06 07:10:26;;;;;;;2.97;1.92;;;;;;;;;;5132179;27;20047;-73
2023/12/06 07:12:53;;;;;;;4.55;1.95;;;;;;;;;;5132770;27;20051;-71
2023/12/06 07:15:20;;;;;;;3.50;2.05;;;;;;;;;;5132228;27;20047;-73
2023/12/06 07:17:46;;;;;;;4.88;2.78;;;;;;;;;;5132557;27;20043;-74
2023/12/06 07:20:13;;;;;;;4.20;1.98;;;;;;;;;;5132165;27;20046;-73
2023/12/06 07:22:41;;;;;;;3.65;1.95;;;;;;;;;;5132135;27;20051;-74
2023/12/06 07:25:07;;;;;;;4.95;2.30;;;;;;;;;;5131558;27;20055;-74
2023/12/06 07:27:34;;;;;;;5.07;2.00;;;;;;;;;;5132233;27;20094;-73
2023/12/06 07:30:04;;;;;;;5.20;2.15;;;;;;;;;;5131824;27;20058;-71
2023/12/06 07:32:31;;;;;;;4.15;2.00;;;;;;;;;;5132070;27;20164;-74
2023/12/06 07:35:12;;;;;;;;;;;;;;;;;;5132344;27;20051;-71
2023/12/06 07:37:39;;;;;;;3.30;1.60;;;;;;;;;;5131574;27;20371;-71
2023/12/06 07:40:09;;;;;;;4.20;2.33;;;;;;;;;;5131510;27;20118;-74
2023/12/06 07:42:38;;;;;;;3.97;2.00;;;;;;;;;;5131865;27;20047;-74
2023/12/06 07:45:09;;;;;;;4.53;2.50;;;;;;;;;;5131438;27;21120;-72
2023/12/06 07:47:36;;;;;;;;;;;;;;;;;;5132427;27;20051;-71
2023/12/06 07:50:03;;;;;;;8.50;3.35;;;;;;;;;;5131665;27;19920;-74
2023/12/06 07:52:33;;;;;;;6.72;3.63;;;;;;;;;;5131938;27;20043;-73
2023/12/06 07:55:00;;;;;;;8.93;3.58;;;;;;;;;;5131259;27;20095;-73
2023/12/06 07:57:28;;;;;;;7.03;3.67;;;;;;;;;;5131704;27;20608;-73
2023/12/06 07:59:55;;;;;;;8.90;3.63;;;;;;;;;;5132023;27;20054;-73
2023/12/06 08:02:22;;;;;;;7.38;3.33;;;;;;;;;;5131829;27;20071;-73
2023/12/06 08:04:48;;;;;;;5.82;2.95;;;;;;;;;;5131144;27;20414;-73
2023/12/06 08:07:18;;;;;;;6.78;3.15;;;;;;;;;;5131795;27;20051;-73
2023/12/06 08:09:45;;;;;;;7.25;3.30;;;;;;;;;;5129479;27;20130;-74
2023/12/06 08:12:11;;;;;;;6.38;3.30;;;;;;;;;;5131488;27;20051;-73
2023/12/06 08:14:43;;;;;;;7.80;3.92;;;;;;;;;;5130965;27;20050;-73
2023/12/06 08:17:10;;;;;;;7.30;3.92;;;;;;;;;;5131399;27;20050;-73
2023/12/06 08:19:36;;;;;;;7.82;3.55;;;;;;;;;;5131043;27;20118;-71
2023/12/06 08:22:04;;;;;;;9.90;4.40;;;;;;;;;;5131323;27;20134;-74
2023/12/06 08:24:31;;;;;;;9.25;3.72;;;;;;;;;;5130587;27;20513;-72
2023/12/06 08:26:58;;;;;;;7.35;3.70;;;;;;;;;;5131333;27;20077;-72
2023/12/06 08:29:25;;;;;;;5.88;3.33;;;;;;;;;;5130562;27;20414;-72
2023/12/06 08:31:52;;;;;;;9.93;4.65;;;;;;;;;;5130610;27;20104;-72
2023/12/06 08:34:18;;;;;;;8.70;3.63;;;;;;;;;;5130981;27;20086;-72
2023/12/06 08:36:45;;;;;;;11.27;5.45;;;;;;;;;;5131342;27;20396;-72
2023/12/06 08:39:12;;;;;;;11.48;4.93;;;;;;;;;;5130268;27;20050;-71
2023/12/06 08:41:39;;;;;;;9.13;4.50;;;;;;;;;;5130669;27;20410;-71
2023/12/06 08:44:07;;;;;;;8.23;4.28;;;;;;;;;;5130385;27;20047;-71
2023/12/06 08:46:33;;;;;;;9.52;4.18;;;;;;;;;;5111992;27;20688;-72
2023/12/06 08:49:00;;;;;;;8.07;4.18;;;;;;;;;;5126716;27;20047;-72
2023/12/06 08:51:27;;;;;;;7.35;3.95;;;;;;;;;;5120248;27;20050;-71
2023/12/06 08:53:54;;;;;;;8.10;3.90;;;;;;;;;;5101323;27;20339;-71
2023/12/06 08:56:21;;;;;;;6.75;3.55;;;;;;;;;;5118384;27;20054;-71
2023/12/06 08:58:47;;;;;;;8.57;4.10;;;;;;;;;;5120099;27;20043;-71
2023/12/06 09:01:14;;;;;;;7.93;4.13;;;;;;;;;;5119744;27;20066;-73
2023/12/06 09:03:41;;;;;;;11.35;4.13;;;;;;;;;;5118330;27;20148;-71
2023/12/06 09:06:09;;;;;;;8.45;4.28;;;;;;;;;;5119732;27;20046;-71
2023/12/06 09:08:35;;;;;;;8.25;3.78;;;;;;;;;;5119216;27;20043;-71
2023/12/06 09:11:03;;;;;;;7.53;3.47;;;;;;;;;;5118049;27;20050;-72
2023/12/06 09:13:30;;;;;;;9.52;3.85;;;;;;;;;;5119577;27;20062;-71
2023/12/06 09:15:56;;;;;;;8.52;4.05;;;;;;;;;;5119350;27;20532;-71
2023/12/06 09:18:23;;;;;;;7.95;3.65;;;;;;;;;;5118035;27;20069;-72
2023/12/06 09:20:52;;;;;;;9.32;4.43;;;;;;;;;;5129509;27;20104;-71
2023/12/06 09:23:18;;;;;;;8.75;4.60;;;;;;;;;;5129770;27;20047;-71
2023/12/06 09:25:46;;;;;;;7.78;3.80;;;;;;;;;;5129047;27;20109;-71
2023/12/06 09:28:14;;;;;;;8.95;4.28;;;;;;;;;;5129520;27;20836;-71
2023/12/06 09:30:41;;;;;;;7.32;3.92;;;;;;;;;;5129414;27;20043;-70
2023/12/06 09:33:07;;;;;;;9.43;3.75;;;;;;;;;;5130032;27;20050;-71
2023/12/06 09:35:34;;;;;;;9.10;4.60;;;;;;;;;;5129952;27;20100;-70
2023/12/06 09:38:02;;;;;;;8.73;4.75;;;;;;;;;;5129690;27;20039;-71
2023/12/06 09:40:28;;;;;;;8.82;4.20;;;;;;;;;;5129018;27;20053;-71
2023/12/06 09:43:00;;;;;;;10.98;4.57;;;;;;;;;;5129298;27;20133;-71
2023/12/06 09:45:27;;;;;;;8.88;4.25;;;;;;;;;;5128935;27;20533;-71
2023/12/06 09:47:56;;;;;;;8.30;3.85;;;;;;;;;;5129855;27;20074;-71
2023/12/06 09:50:26;;;;;;;9.85;4.13;;;;;;;;;;5129255;27;20126;-71
2023/12/06 09:52:54;;;;;;;9.88;4.32;;;;;;;;;;5129403;27;20058;-71
2023/12/06 09:55:25;;;;;;;8.27;4.28;;;;;;;;;;5128738;27;20050;-70
2023/12/06 09:57:53;;;;;;;8.30;4.10;;;;;;;;;;5129215;27;20043;-70
2023/12/06 10:00:21;;;;;;;7.53;3.72;;;;;;;;;;5128842;27;20143;-71
2023/12/06 10:02:55;;;;;;;5.70;3.22;;;;;;;;;;5129349;27;20131;-71
2023/12/06 10:05:22;;;;;;;9.80;4.00;;;;;;;;;;5129040;27;20043;-71
2023/12/06 10:07:49;;;;;;;8.20;3.50;;;;;;;;;;5129419;27;20126;-72
2023/12/06 10:10:21;;;;;;;8.40;4.40;;;;;;;;;;5128793;28;20122;-70
2023/12/06 10:12:50;;;;;;;9.15;3.88;;;;;;;;;;5110740;28;20043;-71
2023/12/06 10:15:17;;;;;;;5.25;2.88;;;;;;;;;;5128997;28;20135;-71
2023/12/06 10:17:44;;;;;;;5.00;2.53;;;;;;;;;;5129333;28;20201;-71
2023/12/06 10:20:12;;;;;;;6.43;3.38;;;;;;;;;;5111111;28;20130;-72
2023/12/06 10:22:39;;;;;;;4.90;2.85;;;;;;;;;;5128962;28;20137;-71
2023/12/06 10:25:07;;;;;;;6.22;3.03;;;;;;;;;;5128521;28;20050;-72
2023/12/06 10:27:35;;;;;;;5.43;2.72;;;;;;;;;;5110840;28;20075;-72
2023/12/06 10:30:03;;;;;;;8.43;3.50;;;;;;;;;;5128858;28;20445;-72
2023/12/06 10:32:30;;;;;;;7.68;3.53;;;;;;;;;;5129694;27;20507;-72
2023/12/06 10:34:59;;;;;;;8.38;3.30;;;;;;;;;;5133029;27;20062;-73
2023/12/06 10:37:27;;;;;;;6.75;3.30;;;;;;;;;;5132527;27;20502;-71
2023/12/06 10:39:59;;;;;;;7.05;3.13;;;;;;;;;;5113928;27;20043;-71
2023/12/06 10:42:33;;;;;;;7.45;2.58;;;;;;;;;;5121934;27;20492;-71
2023/12/06 10:45:01;;;;;;;6.65;2.97;;;;;;;;;;5112235;28;20040;-72
2023/12/06 10:47:28;;;;;;;6.88;3.30;;;;;;;;;;5111739;28;20054;-71
2023/12/06 10:50:00;;;;;;;5.95;2.78;;;;;;;;;;5111489;28;20122;-71
2023/12/06 10:52:29;;;;;;;5.35;2.50;;;;;;;;;;5111461;28;20040;-71
2023/12/06 10:54:58;;;;;;;7.53;2.88;;;;;;;;;;5111205;28;20044;-71
2023/12/06 10:57:25;;;;;;;4.18;2.28;;;;;;;;;;5111468;28;20050;-71
2023/12/06 10:59:57;;;;;;;5.80;2.45;;;;;;;;;;5111941;28;20039;-71
2023/12/06 11:02:26;;;;;;;3.88;2.03;;;;;;;;;;5111628;28;20070;-72
2023/12/06 11:04:57;;;;;;;4.40;2.20;;;;;;;;;;5111346;28;20487;-71
2023/12/06 11:07:31;;;;;;;;;;;;;;;;;;5111908;28;20040;-73
2023/12/06 11:10:36;;;;;;;9.65;4.07;;;;;;;;;;5111033;28;20000;-72
2023/12/06 11:13:23;;;;;;;6.07;2.63;;;;;;;;;;5112047;28;20051;-72
2023/12/06 11:16:27;;;;;;;3.85;1.92;;;;;;;;;;5112181;28;20048;-71
2023/12/06 11:18:55;;;;;;;4.43;2.00;;;;;;;;;;5111761;28;20540;-72
2023/12/06 11:21:24;;;;;;;4.00;1.88;;;;;;;;;;5111536;28;20051;-71
2023/12/06 11:23:52;;;;;;;3.50;1.60;;;;;;;;;;5111544;28;20100;-72
2023/12/06 11:26:18;;;;;;;4.07;2.13;;;;;;;;;;5111418;28;20537;-72
2023/12/06 11:28:45;;;;;;;3.80;2.28;;;;;;;;;;5112257;28;20044;-72
2023/12/06 11:31:15;;;;;;;6.30;2.60;;;;;;;;;;5111601;28;20070;-72
2023/12/06 11:33:54;;;;;;;3.30;1.83;;;;;;;;;;5111576;28;20051;-71
2023/12/06 11:36:24;;;;;;;3.75;2.10;;;;;;;;;;5111614;28;20499;-72
2023/12/06 11:38:51;;;;;;;;;;;;;;;;;;5111646;28;20040;-71
2023/12/06 11:41:21;;;;;;;3.83;1.60;;;;;;;;;;5111446;28;19923;-71
2023/12/06 11:43:49;;;;;;;5.53;2.10;;;;;;;;;;5110932;28;20051;-72
2023/12/06 11:46:17;;;;;;;3.90;1.63;;;;;;;;;;5110722;28;20057;-72
2023/12/06 11:48:50;;;;;;;5.20;2.15;;;;;;;;;;5110756;28;20046;-71
2023/12/06 11:51:23;;;;;;;4.22;1.80;;;;;;;;;;5110406;28;20046;-71
2023/12/06 11:53:51;;;;;;;2.80;1.40;;;;;;;;;;5110252;28;20039;-73
2023/12/06 11:56:25;;;;;;;4.93;2.45;;;;;;;;;;5117050;27;20067;-72
2023/12/06 11:58:52;;;;;;;5.53;2.67;;;;;;;;;;5119802;27;20035;-71
2023/12/06 12:01:19;;;;;;;7.45;2.28;;;;;;;;;;5119943;27;20047;-72
2023/12/06 12:03:48;;;;;;;3.58;1.90;;;;;;;;;;5120581;27;20043;-71
2023/12/06 12:06:16;;;;;;;3.42;1.58;;;;;;;;;;5121444;27;20074;-71
2023/12/06 12:08:43;;;;;;;3.25;1.70;;;;;;;;;;5119977;27;20091;-71
2023/12/06 12:11:11;;;;;;;4.95;1.50;;;;;;;;;;5119567;27;20494;-72
2023/12/06 12:13:40;;;;;;;2.90;1.70;;;;;;;;;;5121662;27;20040;-71
2023/12/06 12:16:07;;;;;;;4.15;1.45;;;;;;;;;;5126491;27;20063;-71
2023/12/06 12:18:35;;;;;;;3.65;1.73;;;;;;;;;;5131222;27;20066;-72
2023/12/06 12:21:11;;;;;;;4.75;1.73;;;;;;;;;;5131244;27;20039;-72
2023/12/06 12:23:39;;;;;;;3.33;1.50;;;;;;;;;;5130397;27;20050;-72
2023/12/06 12:26:13;;;;;;;1.77;1.13;;;;;;;;;;5130993;27;20424;-71
2023/12/06 12:28:40;;;;;;;4.07;1.70;;;;;;;;;;5130812;27;20495;-71
2023/12/06 12:31:13;;;;;;;4.43;1.73;;;;;;;;;;5130840;27;20043;-71
2023/12/06 12:33:41;;;;;;;9.32;3.90;;;;;;;;;;5130773;27;20043;-72
2023/12/06 12:36:20;;;;;;;5.47;2.60;;;;;;;;;;5130777;27;20130;-71
2023/12/06 12:38:47;;;;;;;5.13;1.70;;;;;;;;;;5130273;27;20043;-72
2023/12/06 12:41:14;;;;;;;3.80;1.80;;;;;;;;;;5130790;27;20047;-72
2023/12/06 12:43:41;;;;;;;3.22;1.40;;;;;;;;;;5112614;27;20043;-72
2023/12/06 12:46:10;;;;;;;3.95;1.60;;;;;;;;;;5130792;27;20065;-74
2023/12/06 12:48:37;;;;;;;4.70;1.83;;;;;;;;;;5130735;27;20096;-72
2023/12/06 12:51:10;;;;;;;4.85;1.50;;;;;;;;;;5112221;27;20096;-73
2023/12/06 12:53:38;;;;;;;3.65;1.70;;;;;;;;;;5130115;27;20064;-73
2023/12/06 12:56:07;;;;;;;5.15;1.63;;;;;;;;;;5129857;27;20043;-72
2023/12/06 12:58:35;;;;;;;3.78;1.50;;;;;;;;;;5130307;27;20483;-72
2023/12/06 13:01:03;;;;;;;2.75;1.60;;;;;;;;;;5130649;27;20057;-72
2023/12/06 13:03:32;;;;;;;3.78;1.80;;;;;;;;;;5130450;27;20599;-72
2023/12/06 13:06:03;;;;;;;4.05;1.58;;;;;;;;;;5130595;27;20076;-73
2023/12/06 13:08:31;;;;;;;3.97;1.30;;;;;;;;;;5129707;27;20509;-72
2023/12/06 13:10:59;;;;;;;3.08;1.38;;;;;;;;;;5111709;27;20039;-73
2023/12/06 13:13:27;;;;;;;3.50;1.45;;;;;;;;;;5129714;27;20566;-73
2023/12/06 13:15:55;;;;;;;3.95;1.40;;;;;;;;;;5130394;27;20039;-73
2023/12/06 13:18:22;;;;;;;4.03;1.45;;;;;;;;;;5129802;27;20570;-73
2023/12/06 13:20:49;;;;;;;5.05;1.42;;;;;;;;;;5130108;27;20051;-72
2023/12/06 13:23:15;;;;;;;2.75;1.60;;;;;;;;;;5129927;27;20057;-71
2023/12/06 13:25:42;;;;;;;4.80;1.80;;;;;;;;;;5129710;27;20055;-73
2023/12/06 13:28:09;;;;;;;3.65;1.60;;;;;;;;;;5129532;27;20043;-72
2023/12/06 13:30:38;;;;;;;5.00;1.90;;;;;;;;;;5129815;27;20047;-72
2023/12/06 13:33:05;;;;;;;3.53;1.58;;;;;;;;;;5128758;27;20047;-73
2023/12/06 13:35:32;;;;;;;2.63;1.17;;;;;;;;;;5129790;27;20431;-72
2023/12/06 13:37:58;;;;;;;2.92;1.20;;;;;;;;;;5129648;27;20499;-72
2023/12/06 13:40:25;;;;;;;4.13;1.20;;;;;;;;;;5129319;27;20042;-73
2023/12/06 13:42:53;;;;;;;3.20;1.30;;;;;;;;;;5111409;27;20176;-73
2023/12/06 13:45:20;;;;;;;3.08;1.35;;;;;;;;;;5129638;27;20049;-72
2023/12/06 13:47:46;;;;;;;3.83;1.60;;;;;;;;;;5129263;27;20487;-72
2023/12/06 13:50:13;;;;;;;3.08;1.27;;;;;;;;;;5129195;27;20043;-72
2023/12/06 13:52:41;;;;;;;2.33;1.30;;;;;;;;;;5129398;27;20526;-72
2023/12/06 13:55:08;;;;;;;3.88;1.63;;;;;;;;;;5129342;27;20074;-72
2023/12/06 13:57:35;;;;;;;2.83;1.30;;;;;;;;;;5129585;27;20047;-73
2023/12/06 14:00:05;;;;;;;3.08;1.33;;;;;;;;;;5111248;27;20050;-72
2023/12/06 14:02:32;;;;;;;4.37;1.40;;;;;;;;;;5129287;27;20616;-73
2023/12/06 14:05:00;;;;;;;6.13;1.58;;;;;;;;;;5129087;27;20079;-73
2023/12/06 14:07:27;;;;;;;3.22;1.27;;;;;;;;;;5128155;27;20511;-73
2023/12/06 14:09:54;;;;;;;4.07;1.67;;;;;;;;;;5129057;27;20055;-73
2023/12/06 14:12:21;;;;;;;2.67;1.20;;;;;;;;;;5129243;28;20578;-74
2023/12/06 14:14:47;;;;;;;6.30;1.60;;;;;;;;;;5129148;28;20054;-72
2023/12/06 14:17:14;;;;;;;4.47;1.30;;;;;;;;;;5129473;28;20134;-73
2023/12/06 14:19:42;;;;;;;2.65;1.30;;;;;;;;;;5129115;28;20465;-73
2023/12/06 14:22:08;;;;;;;2.83;1.23;;;;;;;;;;5128876;28;20552;-72
2023/12/06 14:24:35;;;;;;;3.67;1.23;;;;;;;;;;5128698;28;20148;-72
2023/12/06 14:27:02;;;;;;;2.70;1.10;;;;;;;;;;5129213;28;20066;-73
2023/12/06 14:29:29;;;;;;;4.57;1.15;;;;;;;;;;5129139;27;20054;-73
2023/12/06 14:31:55;;;;;;;3.33;1.00;;;;;;;;;;5129103;28;20055;-72
2023/12/06 14:34:22;;;;;;;4.68;1.10;;;;;;;;;;5128923;28;20637;-72
2023/12/06 14:36:49;;;;;;;2.35;0.90;;;;;;;;;;5110911;28;20075;-73
2023/12/06 14:39:17;;;;;;;2.47;0.95;;;;;;;;;;5128274;28;20079;-73
2023/12/06 14:41:44;;;;;;;3.65;0.85;;;;;;;;;;5128977;28;20090;-72
2023/12/06 14:44:11;;;;;;;7.45;1.08;;;;;;;;;;5129098;28;20113;-73
2023/12/06 14:46:37;;;;;;;5.60;1.10;;;;;;;;;;5129183;28;20078;-73
2023/12/06 14:49:04;;;;;;;1.63;0.75;;;;;;;;;;5128982;28;20064;-73